LFRM/LME METAR and TAF weather

Enter ICAO airport designator
Station Type Date Time Source
LFRM METAR 2020/07/08 22:30 UTC NOAA

LFRM 082230Z AUTO 09002KT CAVOK 20/14 Q1018


Station Type Date Time Source
LFRM Decoded METAR 2020/07/08 22:30 UTC NOAA

Le Mans, France (LFRM) 47-56N 000-12E 52M
Jul 08, 2020 - 06:30 PM EDT / 2020.07.08 2230 UTC
Wind: from the E (090 degrees) at 2 MPH (2 KT):0
Visibility: greater than 7 mile(s):0
Temperature: 68 F (20 C)
Dew Point: 57 F (14 C)
Relative Humidity: 68%
Pressure (altimeter): 30.06 in. Hg (1018 hPa)
ob: LFRM 082230Z AUTO 09002KT CAVOK 20/14 Q1018
cycle: 22

Station Type Date Time Source
LFRM TAF 2020/07/08 21:07 UTC NOAA

TAF LFRM 082100Z 0821/0918 CNL

Example: see airport list